sensor_id;sensor_type;location;lat;lon;timestamp;temperature;humidity
1594;DHT22;790;47.000;16.084;2023-04-24T00:01:25;12.90;99.90
1594;DHT22;790;47.000;16.084;2023-04-24T00:03:53;12.80;99.90
1594;DHT22;790;47.000;16.084;2023-04-24T00:06:21;12.90;99.90
1594;DHT22;790;47.000;16.084;2023-04-24T00:08:49;12.80;99.90
1594;DHT22;790;47.000;16.084;2023-04-24T00:11:16;12.80;99.90
1594;DHT22;790;47.000;16.084;2023-04-24T00:13:43;12.70;99.90
1594;DHT22;790;47.000;16.084;2023-04-24T00:16:11;12.70;99.90
1594;DHT22;790;47.000;16.084;2023-04-24T00:18:38;12.50;99.90
1594;DHT22;790;47.000;16.084;2023-04-24T00:21:08;12.40;99.90
1594;DHT22;790;47.000;16.084;2023-04-24T00:23:35;12.40;99.90
1594;DHT22;790;47.000;16.084;2023-04-24T00:26:02;12.40;99.90
1594;DHT22;790;47.000;16.084;2023-04-24T00:28:29;12.40;99.90
1594;DHT22;790;47.000;16.084;2023-04-24T00:30:57;12.40;99.90
1594;DHT22;790;47.000;16.084;2023-04-24T00:33:24;12.30;99.90
1594;DHT22;790;47.000;16.084;2023-04-24T00:35:51;12.30;99.90
1594;DHT22;790;47.000;16.084;2023-04-24T00:38:19;12.20;99.90
1594;DHT22;790;47.000;16.084;2023-04-24T00:40:47;12.10;99.90
1594;DHT22;790;47.000;16.084;2023-04-24T00:43:15;12.10;99.90
1594;DHT22;790;47.000;16.084;2023-04-24T00:45:43;12.10;99.90
1594;DHT22;790;47.000;16.084;2023-04-24T00:48:10;12.10;99.90
1594;DHT22;790;47.000;16.084;2023-04-24T00:50:38;12.10;99.90
1594;DHT22;790;47.000;16.084;2023-04-24T00:53:06;12.00;99.90
1594;DHT22;790;47.000;16.084;2023-04-24T00:55:34;12.00;99.90
1594;DHT22;790;47.000;16.084;2023-04-24T00:58:03;11.90;99.90
1594;DHT22;790;47.000;16.084;2023-04-24T01:00:30;11.80;99.90
1594;DHT22;790;47.000;16.084;2023-04-24T01:02:58;11.80;99.90
1594;DHT22;790;47.000;16.084;2023-04-24T01:05:27;11.80;99.90
1594;DHT22;790;47.000;16.084;2023-04-24T01:07:54;11.90;99.90
1594;DHT22;790;47.000;16.084;2023-04-24T01:10:22;11.80;99.90
1594;DHT22;790;47.000;16.084;2023-04-24T01:12:51;11.70;99.90
1594;DHT22;790;47.000;16.084;2023-04-24T01:15:19;11.60;99.90
1594;DHT22;790;47.000;16.084;2023-04-24T01:17:46;11.50;99.90
1594;DHT22;790;47.000;16.084;2023-04-24T01:20:13;11.40;99.90
1594;DHT22;790;47.000;16.084;2023-04-24T01:22:42;11.40;99.90
1594;DHT22;790;47.000;16.084;2023-04-24T01:25:10;11.50;99.90
1594;DHT22;790;47.000;16.084;2023-04-24T01:27:37;11.50;99.90
1594;DHT22;790;47.000;16.084;2023-04-24T01:30:05;11.50;99.90
1594;DHT22;790;47.000;16.084;2023-04-24T01:32:33;11.40;99.90
1594;DHT22;790;47.000;16.084;2023-04-24T01:35:00;11.30;99.90
1594;DHT22;790;47.000;16.084;2023-04-24T01:37:28;11.30;99.90
1594;DHT22;790;47.000;16.084;2023-04-24T01:39:57;11.30;99.90
1594;DHT22;790;47.000;16.084;2023-04-24T01:42:24;11.40;99.90
1594;DHT22;790;47.000;16.084;2023-04-24T01:45:11;11.50;99.90
1594;DHT22;790;47.000;16.084;2023-04-24T01:47:57;11.50;99.90
1594;DHT22;790;47.000;16.084;2023-04-24T01:50:44;11.50;99.90
1594;DHT22;790;47.000;16.084;2023-04-24T01:53:29;11.50;99.90
1594;DHT22;790;47.000;16.084;2023-04-24T01:56:16;11.50;99.90
1594;DHT22;790;47.000;16.084;2023-04-24T01:59:03;11.30;99.90
1594;DHT22;790;47.000;16.084;2023-04-24T02:01:49;11.40;99.90
1594;DHT22;790;47.000;16.084;2023-04-24T02:04:34;11.40;99.90
1594;DHT22;790;47.000;16.084;2023-04-24T02:07:20;11.40;99.90
1594;DHT22;790;47.000;16.084;2023-04-24T02:10:07;11.40;99.90
1594;DHT22;790;47.000;16.084;2023-04-24T02:12:54;11.10;99.90
1594;DHT22;790;47.000;16.084;2023-04-24T02:15:40;11.00;99.90
1594;DHT22;790;47.000;16.084;2023-04-24T02:18:25;10.90;99.90
1594;DHT22;790;47.000;16.084;2023-04-24T02:21:11;10.90;99.90
1594;DHT22;790;47.000;16.084;2023-04-24T02:23:57;10.90;99.90
1594;DHT22;790;47.000;16.084;2023-04-24T02:26:43;10.90;99.90
1594;DHT22;790;47.000;16.084;2023-04-24T02:29:30;11.00;99.90
1594;DHT22;790;47.000;16.084;2023-04-24T02:32:16;11.00;99.90
1594;DHT22;790;47.000;16.084;2023-04-24T02:35:01;10.90;99.90
1594;DHT22;790;47.000;16.084;2023-04-24T02:37:47;10.90;99.90
1594;DHT22;790;47.000;16.084;2023-04-24T02:40:33;10.90;99.90
1594;DHT22;790;47.000;16.084;2023-04-24T02:43:19;10.90;99.90
1594;DHT22;790;47.000;16.084;2023-04-24T02:46:06;11.00;99.90
1594;DHT22;790;47.000;16.084;2023-04-24T02:48:51;11.00;99.90
1594;DHT22;790;47.000;16.084;2023-04-24T02:51:37;10.90;99.90
1594;DHT22;790;47.000;16.084;2023-04-24T02:54:25;10.80;99.90
1594;DHT22;790;47.000;16.084;2023-04-24T02:57:10;10.80;99.90
1594;DHT22;790;47.000;16.084;2023-04-24T02:59:55;10.80;99.90
1594;DHT22;790;47.000;16.084;2023-04-24T03:02:43;10.80;99.90
1594;DHT22;790;47.000;16.084;2023-04-24T03:05:28;10.70;99.90
1594;DHT22;790;47.000;16.084;2023-04-24T03:08:14;10.70;99.90
1594;DHT22;790;47.000;16.084;2023-04-24T03:11:01;10.70;99.90
1594;DHT22;790;47.000;16.084;2023-04-24T03:13:47;10.80;99.90
1594;DHT22;790;47.000;16.084;2023-04-24T03:16:33;10.70;99.90
1594;DHT22;790;47.000;16.084;2023-04-24T03:19:20;10.70;99.90
1594;DHT22;790;47.000;16.084;2023-04-24T03:22:05;10.80;99.90
1594;DHT22;790;47.000;16.084;2023-04-24T03:24:53;10.90;99.90
1594;DHT22;790;47.000;16.084;2023-04-24T03:27:39;11.00;99.90
1594;DHT22;790;47.000;16.084;2023-04-24T03:30:25;10.90;99.90
1594;DHT22;790;47.000;16.084;2023-04-24T03:33:12;11.00;99.90
1594;DHT22;790;47.000;16.084;2023-04-24T03:35:59;10.90;99.90
1594;DHT22;790;47.000;16.084;2023-04-24T03:38:44;11.00;99.90
1594;DHT22;790;47.000;16.084;2023-04-24T03:41:30;11.00;99.90
1594;DHT22;790;47.000;16.084;2023-04-24T03:44:15;10.90;99.90
1594;DHT22;790;47.000;16.084;2023-04-24T03:47:01;10.90;99.90
1594;DHT22;790;47.000;16.084;2023-04-24T03:49:47;10.80;99.90
1594;DHT22;790;47.000;16.084;2023-04-24T03:52:34;10.70;99.90
1594;DHT22;790;47.000;16.084;2023-04-24T03:55:20;10.70;99.90
1594;DHT22;790;47.000;16.084;2023-04-24T03:58:07;10.60;99.90
1594;DHT22;790;47.000;16.084;2023-04-24T04:00:53;10.50;99.90
1594;DHT22;790;47.000;16.084;2023-04-24T04:03:38;10.40;99.90
1594;DHT22;790;47.000;16.084;2023-04-24T04:06:24;10.40;99.90
1594;DHT22;790;47.000;16.084;2023-04-24T04:09:12;10.40;99.90
1594;DHT22;790;47.000;16.084;2023-04-24T04:11:58;10.40;99.90
1594;DHT22;790;47.000;16.084;2023-04-24T04:14:44;10.50;99.90
1594;DHT22;790;47.000;16.084;2023-04-24T04:17:30;10.60;99.90
1594;DHT22;790;47.000;16.084;2023-04-24T04:20:15;10.70;99.90
1594;DHT22;790;47.000;16.084;2023-04-24T04:23:01;10.80;99.90
1594;DHT22;790;47.000;16.084;2023-04-24T04:25:49;10.90;99.90
1594;DHT22;790;47.000;16.084;2023-04-24T04:28:35;11.00;99.90
1594;DHT22;790;47.000;16.084;2023-04-24T04:31:22;11.00;99.90
1594;DHT22;790;47.000;16.084;2023-04-24T04:34:09;11.10;99.90
1594;DHT22;790;47.000;16.084;2023-04-24T04:36:56;11.10;99.90
1594;DHT22;790;47.000;16.084;2023-04-24T04:39:43;11.10;99.90
1594;DHT22;790;47.000;16.084;2023-04-24T04:42:30;11.10;99.90
1594;DHT22;790;47.000;16.084;2023-04-24T04:45:16;11.30;99.90
1594;DHT22;790;47.000;16.084;2023-04-24T04:48:03;11.30;99.90
1594;DHT22;790;47.000;16.084;2023-04-24T04:50:48;11.30;99.90
1594;DHT22;790;47.000;16.084;2023-04-24T04:53:34;11.40;99.90
1594;DHT22;790;47.000;16.084;2023-04-24T04:56:20;11.50;99.90
1594;DHT22;790;47.000;16.084;2023-04-24T04:59:07;11.50;99.90
1594;DHT22;790;47.000;16.084;2023-04-24T05:01:53;11.60;99.90
1594;DHT22;790;47.000;16.084;2023-04-24T05:04:39;11.60;99.90
1594;DHT22;790;47.000;16.084;2023-04-24T05:07:24;11.50;99.90
1594;DHT22;790;47.000;16.084;2023-04-24T05:10:10;11.60;99.90
1594;DHT22;790;47.000;16.084;2023-04-24T05:12:56;11.60;99.90
1594;DHT22;790;47.000;16.084;2023-04-24T05:15:43;11.70;99.90
1594;DHT22;790;47.000;16.084;2023-04-24T05:18:29;11.70;99.90
1594;DHT22;790;47.000;16.084;2023-04-24T05:21:15;11.80;99.90
1594;DHT22;790;47.000;16.084;2023-04-24T05:24:01;11.80;99.90
1594;DHT22;790;47.000;16.084;2023-04-24T05:26:47;11.90;99.90
1594;DHT22;790;47.000;16.084;2023-04-24T05:29:32;11.90;99.90
1594;DHT22;790;47.000;16.084;2023-04-24T05:32:20;12.00;99.90
1594;DHT22;790;47.000;16.084;2023-04-24T05:35:06;12.00;99.90
1594;DHT22;790;47.000;16.084;2023-04-24T05:37:52;12.00;99.90
1594;DHT22;790;47.000;16.084;2023-04-24T05:40:37;12.10;99.90
1594;DHT22;790;47.000;16.084;2023-04-24T05:43:23;12.20;99.90
1594;DHT22;790;47.000;16.084;2023-04-24T05:46:09;12.20;99.90
1594;DHT22;790;47.000;16.084;2023-04-24T05:48:56;12.10;99.90
1594;DHT22;790;47.000;16.084;2023-04-24T05:51:42;12.20;99.90
1594;DHT22;790;47.000;16.084;2023-04-24T05:54:28;12.30;99.90
1594;DHT22;790;47.000;16.084;2023-04-24T05:57:13;12.30;99.90
1594;DHT22;790;47.000;16.084;2023-04-24T06:00:00;12.40;99.90
1594;DHT22;790;47.000;16.084;2023-04-24T06:02:46;12.50;99.90
1594;DHT22;790;47.000;16.084;2023-04-24T06:05:33;12.50;99.90
1594;DHT22;790;47.000;16.084;2023-04-24T06:08:19;12.60;99.90
1594;DHT22;790;47.000;16.084;2023-04-24T06:11:05;12.70;99.90
1594;DHT22;790;47.000;16.084;2023-04-24T06:13:50;12.70;99.90
1594;DHT22;790;47.000;16.084;2023-04-24T06:16:37;12.80;99.90
1594;DHT22;790;47.000;16.084;2023-04-24T06:19:23;12.90;99.90
1594;DHT22;790;47.000;16.084;2023-04-24T06:22:10;13.00;99.90
1594;DHT22;790;47.000;16.084;2023-04-24T06:24:56;13.00;99.90
1594;DHT22;790;47.000;16.084;2023-04-24T06:27:42;13.10;99.90
1594;DHT22;790;47.000;16.084;2023-04-24T06:30:28;13.10;99.90
1594;DHT22;790;47.000;16.084;2023-04-24T06:33:14;13.20;99.90
1594;DHT22;790;47.000;16.084;2023-04-24T06:36:02;13.30;99.90
1594;DHT22;790;47.000;16.084;2023-04-24T06:38:49;13.40;99.90
1594;DHT22;790;47.000;16.084;2023-04-24T06:41:35;13.40;99.90
1594;DHT22;790;47.000;16.084;2023-04-24T06:44:21;13.40;99.90
1594;DHT22;790;47.000;16.084;2023-04-24T06:47:08;13.50;99.90
1594;DHT22;790;47.000;16.084;2023-04-24T06:49:54;13.50;99.90
1594;DHT22;790;47.000;16.084;2023-04-24T06:52:40;13.60;99.90
1594;DHT22;790;47.000;16.084;2023-04-24T06:55:27;13.60;99.90
1594;DHT22;790;47.000;16.084;2023-04-24T06:58:14;13.70;99.90
1594;DHT22;790;47.000;16.084;2023-04-24T07:01:00;13.70;99.90
1594;DHT22;790;47.000;16.084;2023-04-24T07:03:45;13.80;99.90
1594;DHT22;790;47.000;16.084;2023-04-24T07:06:31;13.90;99.90
1594;DHT22;790;47.000;16.084;2023-04-24T07:09:17;13.90;99.90
1594;DHT22;790;47.000;16.084;2023-04-24T07:12:05;14.00;99.90
1594;DHT22;790;47.000;16.084;2023-04-24T07:14:51;14.10;99.90
1594;DHT22;790;47.000;16.084;2023-04-24T07:17:37;14.10;99.90
1594;DHT22;790;47.000;16.084;2023-04-24T07:20:27;14.20;99.90
1594;DHT22;790;47.000;16.084;2023-04-24T07:23:13;14.20;99.90
1594;DHT22;790;47.000;16.084;2023-04-24T07:26:00;14.30;99.90
1594;DHT22;790;47.000;16.084;2023-04-24T07:28:47;14.30;99.90
1594;DHT22;790;47.000;16.084;2023-04-24T07:31:33;14.40;99.90
1594;DHT22;790;47.000;16.084;2023-04-24T07:34:21;14.60;99.90
1594;DHT22;790;47.000;16.084;2023-04-24T07:37:07;14.70;99.90
1594;DHT22;790;47.000;16.084;2023-04-24T07:39:55;14.70;99.90
1594;DHT22;790;47.000;16.084;2023-04-24T07:42:40;14.70;99.90
1594;DHT22;790;47.000;16.084;2023-04-24T07:45:29;14.70;99.90
1594;DHT22;790;47.000;16.084;2023-04-24T07:48:17;14.70;99.90
1594;DHT22;790;47.000;16.084;2023-04-24T07:51:06;14.80;99.90
1594;DHT22;790;47.000;16.084;2023-04-24T07:53:54;14.80;99.90
1594;DHT22;790;47.000;16.084;2023-04-24T07:56:40;14.80;99.90
1594;DHT22;790;47.000;16.084;2023-04-24T07:59:27;14.90;99.90
1594;DHT22;790;47.000;16.084;2023-04-24T08:02:18;14.90;99.90
1594;DHT22;790;47.000;16.084;2023-04-24T08:05:06;14.90;99.90
1594;DHT22;790;47.000;16.084;2023-04-24T08:07:53;15.00;99.90
1594;DHT22;790;47.000;16.084;2023-04-24T08:10:39;15.00;99.90
1594;DHT22;790;47.000;16.084;2023-04-24T08:13:24;15.00;99.90
1594;DHT22;790;47.000;16.084;2023-04-24T08:16:10;15.10;99.90
1594;DHT22;790;47.000;16.084;2023-04-24T08:18:57;15.20;99.90
1594;DHT22;790;47.000;16.084;2023-04-24T08:21:43;15.20;99.90
1594;DHT22;790;47.000;16.084;2023-04-24T08:24:29;15.20;99.90
1594;DHT22;790;47.000;16.084;2023-04-24T08:27:15;15.30;99.90
1594;DHT22;790;47.000;16.084;2023-04-24T08:30:01;15.30;99.90
1594;DHT22;790;47.000;16.084;2023-04-24T08:32:47;15.40;99.90
1594;DHT22;790;47.000;16.084;2023-04-24T08:35:34;15.50;99.90
1594;DHT22;790;47.000;16.084;2023-04-24T08:38:21;15.60;99.90
1594;DHT22;790;47.000;16.084;2023-04-24T08:41:07;15.70;99.90
1594;DHT22;790;47.000;16.084;2023-04-24T08:43:55;15.60;99.90
1594;DHT22;790;47.000;16.084;2023-04-24T08:46:43;15.60;99.90
1594;DHT22;790;47.000;16.084;2023-04-24T08:49:30;15.60;99.90
1594;DHT22;790;47.000;16.084;2023-04-24T08:52:18;15.60;99.90
1594;DHT22;790;47.000;16.084;2023-04-24T08:55:05;15.50;99.90
1594;DHT22;790;47.000;16.084;2023-04-24T08:57:53;15.50;99.90
1594;DHT22;790;47.000;16.084;2023-04-24T09:00:39;15.50;99.90
1594;DHT22;790;47.000;16.084;2023-04-24T09:03:31;15.40;99.90
1594;DHT22;790;47.000;16.084;2023-04-24T09:06:19;15.30;99.90
1594;DHT22;790;47.000;16.084;2023-04-24T09:09:10;15.20;99.90
1594;DHT22;790;47.000;16.084;2023-04-24T09:11:56;15.20;99.90
1594;DHT22;790;47.000;16.084;2023-04-24T09:14:44;15.20;99.90
1594;DHT22;790;47.000;16.084;2023-04-24T09:17:30;15.10;99.90
1594;DHT22;790;47.000;16.084;2023-04-24T09:20:16;15.00;99.90
1594;DHT22;790;47.000;16.084;2023-04-24T09:23:02;15.00;99.90
1594;DHT22;790;47.000;16.084;2023-04-24T09:25:54;14.90;99.90
1594;DHT22;790;47.000;16.084;2023-04-24T09:28:40;14.90;99.90
1594;DHT22;790;47.000;16.084;2023-04-24T09:31:28;14.80;99.90
1594;DHT22;790;47.000;16.084;2023-04-24T09:34:18;14.80;99.90
1594;DHT22;790;47.000;16.084;2023-04-24T09:37:06;14.80;99.90
1594;DHT22;790;47.000;16.084;2023-04-24T09:40:09;14.80;99.90
1594;DHT22;790;47.000;16.084;2023-04-24T09:42:57;14.70;99.90
1594;DHT22;790;47.000;16.084;2023-04-24T09:45:45;14.70;99.90
1594;DHT22;790;47.000;16.084;2023-04-24T09:48:32;14.60;99.90
1594;DHT22;790;47.000;16.084;2023-04-24T09:51:33;14.50;99.90
1594;DHT22;790;47.000;16.084;2023-04-24T09:54:20;14.50;99.90
1594;DHT22;790;47.000;16.084;2023-04-24T09:57:08;14.50;99.90
1594;DHT22;790;47.000;16.084;2023-04-24T09:59:57;14.40;99.90
1594;DHT22;790;47.000;16.084;2023-04-24T10:02:43;14.40;99.90
1594;DHT22;790;47.000;16.084;2023-04-24T10:05:30;14.40;99.90
1594;DHT22;790;47.000;16.084;2023-04-24T10:08:16;14.40;99.90
1594;DHT22;790;47.000;16.084;2023-04-24T10:11:02;14.20;99.90
1594;DHT22;790;47.000;16.084;2023-04-24T10:13:48;14.20;99.90
1594;DHT22;790;47.000;16.084;2023-04-24T10:16:37;14.10;99.90
1594;DHT22;790;47.000;16.084;2023-04-24T10:19:25;14.10;99.90
1594;DHT22;790;47.000;16.084;2023-04-24T10:22:11;14.10;99.90
1594;DHT22;790;47.000;16.084;2023-04-24T10:24:58;14.10;99.90
1594;DHT22;790;47.000;16.084;2023-04-24T10:27:45;13.90;99.90
1594;DHT22;790;47.000;16.084;2023-04-24T10:30:32;13.90;99.90
1594;DHT22;790;47.000;16.084;2023-04-24T10:33:22;14.00;99.90
1594;DHT22;790;47.000;16.084;2023-04-24T10:36:09;14.20;99.90
1594;DHT22;790;47.000;16.084;2023-04-24T10:38:56;14.30;99.90
1594;DHT22;790;47.000;16.084;2023-04-24T10:41:44;14.40;99.90
1594;DHT22;790;47.000;16.084;2023-04-24T10:44:36;14.50;99.90
1594;DHT22;790;47.000;16.084;2023-04-24T10:47:22;14.40;99.90
1594;DHT22;790;47.000;16.084;2023-04-24T10:50:10;14.40;99.90
1594;DHT22;790;47.000;16.084;2023-04-24T10:53:06;14.50;99.90
1594;DHT22;790;47.000;16.084;2023-04-24T10:55:57;14.50;99.90
1594;DHT22;790;47.000;16.084;2023-04-24T10:58:50;14.50;99.90
1594;DHT22;790;47.000;16.084;2023-04-24T11:01:38;14.60;99.90
1594;DHT22;790;47.000;16.084;2023-04-24T11:04:29;14.70;99.90
1594;DHT22;790;47.000;16.084;2023-04-24T11:07:21;14.70;99.90
1594;DHT22;790;47.000;16.084;2023-04-24T11:09:58;14.70;99.90
1594;DHT22;790;47.000;16.084;2023-04-24T11:12:27;14.70;99.90
1594;DHT22;790;47.000;16.084;2023-04-24T11:15:00;14.60;99.90
1594;DHT22;790;47.000;16.084;2023-04-24T11:17:29;14.50;99.90
1594;DHT22;790;47.000;16.084;2023-04-24T11:20:01;14.70;99.90
1594;DHT22;790;47.000;16.084;2023-04-24T11:22:33;14.70;99.90
1594;DHT22;790;47.000;16.084;2023-04-24T11:25:02;14.70;99.90
1594;DHT22;790;47.000;16.084;2023-04-24T11:27:31;14.80;99.90
1594;DHT22;790;47.000;16.084;2023-04-24T11:30:00;14.80;99.90
1594;DHT22;790;47.000;16.084;2023-04-24T11:32:33;14.90;99.90
1594;DHT22;790;47.000;16.084;2023-04-24T11:35:01;15.00;99.90
1594;DHT22;790;47.000;16.084;2023-04-24T11:37:35;15.10;99.90
1594;DHT22;790;47.000;16.084;2023-04-24T11:40:04;15.10;99.90
1594;DHT22;790;47.000;16.084;2023-04-24T11:42:34;15.20;99.90
1594;DHT22;790;47.000;16.084;2023-04-24T11:45:02;15.20;99.90
1594;DHT22;790;47.000;16.084;2023-04-24T11:47:33;15.20;99.90
1594;DHT22;790;47.000;16.084;2023-04-24T11:50:01;15.20;99.90
1594;DHT22;790;47.000;16.084;2023-04-24T11:52:30;15.30;99.90
1594;DHT22;790;47.000;16.084;2023-04-24T11:54:59;15.30;99.90
1594;DHT22;790;47.000;16.084;2023-04-24T11:57:26;15.30;99.90
1594;DHT22;790;47.000;16.084;2023-04-24T11:59:59;15.40;99.90
1594;DHT22;790;47.000;16.084;2023-04-24T12:02:26;15.40;99.90
1594;DHT22;790;47.000;16.084;2023-04-24T12:04:54;15.40;99.90
1594;DHT22;790;47.000;16.084;2023-04-24T12:07:22;15.30;99.90
1594;DHT22;790;47.000;16.084;2023-04-24T12:09:57;15.40;99.90
1594;DHT22;790;47.000;16.084;2023-04-24T12:12:26;15.40;99.90
1594;DHT22;790;47.000;16.084;2023-04-24T12:14:54;15.50;99.90
1594;DHT22;790;47.000;16.084;2023-04-24T12:17:26;15.30;99.90
1594;DHT22;790;47.000;16.084;2023-04-24T12:19:57;15.30;99.90
1594;DHT22;790;47.000;16.084;2023-04-24T12:22:25;15.30;99.90
1594;DHT22;790;47.000;16.084;2023-04-24T12:24:58;15.10;99.90
1594;DHT22;790;47.000;16.084;2023-04-24T12:27:27;14.90;99.90
1594;DHT22;790;47.000;16.084;2023-04-24T12:29:56;14.80;99.90
1594;DHT22;790;47.000;16.084;2023-04-24T12:32:23;14.70;99.90
1594;DHT22;790;47.000;16.084;2023-04-24T12:34:52;14.60;99.90
1594;DHT22;790;47.000;16.084;2023-04-24T12:37:19;14.40;99.90
1594;DHT22;790;47.000;16.084;2023-04-24T12:40:04;14.40;99.90
1594;DHT22;790;47.000;16.084;2023-04-24T12:42:33;14.40;99.90
1594;DHT22;790;47.000;16.084;2023-04-24T12:45:02;14.40;99.90
1594;DHT22;790;47.000;16.084;2023-04-24T12:47:30;14.30;99.90
1594;DHT22;790;47.000;16.084;2023-04-24T12:49:58;14.40;99.90
1594;DHT22;790;47.000;16.084;2023-04-24T12:52:26;14.40;99.90
1594;DHT22;790;47.000;16.084;2023-04-24T12:54:55;14.30;99.90
1594;DHT22;790;47.000;16.084;2023-04-24T12:57:24;14.30;99.90
1594;DHT22;790;47.000;16.084;2023-04-24T12:59:54;14.40;99.90
1594;DHT22;790;47.000;16.084;2023-04-24T13:02:21;14.50;99.90
1594;DHT22;790;47.000;16.084;2023-04-24T13:04:49;14.50;99.90
1594;DHT22;790;47.000;16.084;2023-04-24T13:07:17;14.40;99.90
1594;DHT22;790;47.000;16.084;2023-04-24T13:09:45;14.40;99.90
1594;DHT22;790;47.000;16.084;2023-04-24T13:12:12;14.30;99.90
1594;DHT22;790;47.000;16.084;2023-04-24T13:14:41;14.10;99.90
1594;DHT22;790;47.000;16.084;2023-04-24T13:17:08;14.10;99.90
1594;DHT22;790;47.000;16.084;2023-04-24T13:19:38;14.10;99.90
1594;DHT22;790;47.000;16.084;2023-04-24T13:22:06;14.20;99.90
1594;DHT22;790;47.000;16.084;2023-04-24T13:24:33;14.20;99.90
1594;DHT22;790;47.000;16.084;2023-04-24T13:27:00;14.20;99.90
1594;DHT22;790;47.000;16.084;2023-04-24T13:29:29;14.30;99.90
1594;DHT22;790;47.000;16.084;2023-04-24T13:31:57;14.40;99.90
1594;DHT22;790;47.000;16.084;2023-04-24T13:34:25;14.40;99.90
1594;DHT22;790;47.000;16.084;2023-04-24T13:36:56;14.40;99.90
1594;DHT22;790;47.000;16.084;2023-04-24T13:39:24;14.40;99.90
1594;DHT22;790;47.000;16.084;2023-04-24T13:41:52;14.40;99.90
1594;DHT22;790;47.000;16.084;2023-04-24T13:44:20;14.30;99.90
1594;DHT22;790;47.000;16.084;2023-04-24T13:46:49;14.30;99.90
1594;DHT22;790;47.000;16.084;2023-04-24T13:49:19;14.30;99.90
1594;DHT22;790;47.000;16.084;2023-04-24T13:51:46;14.30;99.90
1594;DHT22;790;47.000;16.084;2023-04-24T13:54:14;14.20;99.90
1594;DHT22;790;47.000;16.084;2023-04-24T13:56:42;14.20;99.90
1594;DHT22;790;47.000;16.084;2023-04-24T13:59:09;14.30;99.90
1594;DHT22;790;47.000;16.084;2023-04-24T14:01:36;14.30;99.90
1594;DHT22;790;47.000;16.084;2023-04-24T14:04:03;14.40;99.90
1594;DHT22;790;47.000;16.084;2023-04-24T14:06:32;14.40;99.90
1594;DHT22;790;47.000;16.084;2023-04-24T14:08:59;14.40;99.90
1594;DHT22;790;47.000;16.084;2023-04-24T14:11:27;14.50;99.90
1594;DHT22;790;47.000;16.084;2023-04-24T14:13:54;14.50;99.90
1594;DHT22;790;47.000;16.084;2023-04-24T14:16:23;14.50;99.90
1594;DHT22;790;47.000;16.084;2023-04-24T14:18:50;14.60;99.90
1594;DHT22;790;47.000;16.084;2023-04-24T14:21:17;14.60;99.90
1594;DHT22;790;47.000;16.084;2023-04-24T14:23:45;14.70;99.90
1594;DHT22;790;47.000;16.084;2023-04-24T14:26:13;14.70;99.90
1594;DHT22;790;47.000;16.084;2023-04-24T14:28:40;14.60;99.90
1594;DHT22;790;47.000;16.084;2023-04-24T14:31:07;14.70;99.90
1594;DHT22;790;47.000;16.084;2023-04-24T14:33:35;14.70;99.90
1594;DHT22;790;47.000;16.084;2023-04-24T14:36:02;14.70;99.90
1594;DHT22;790;47.000;16.084;2023-04-24T14:38:31;14.70;99.90
1594;DHT22;790;47.000;16.084;2023-04-24T14:41:03;14.70;99.90
1594;DHT22;790;47.000;16.084;2023-04-24T14:43:35;14.70;99.90
1594;DHT22;790;47.000;16.084;2023-04-24T14:46:02;14.70;99.90
1594;DHT22;790;47.000;16.084;2023-04-24T14:48:29;14.70;99.90
1594;DHT22;790;47.000;16.084;2023-04-24T14:50:57;14.70;99.90
1594;DHT22;790;47.000;16.084;2023-04-24T14:53:24;14.70;99.90
1594;DHT22;790;47.000;16.084;2023-04-24T14:55:51;14.70;99.90
1594;DHT22;790;47.000;16.084;2023-04-24T14:58:20;14.70;99.90
1594;DHT22;790;47.000;16.084;2023-04-24T15:00:47;14.60;99.90
1594;DHT22;790;47.000;16.084;2023-04-24T15:03:18;14.60;99.90
1594;DHT22;790;47.000;16.084;2023-04-24T15:05:46;14.60;99.90
1594;DHT22;790;47.000;16.084;2023-04-24T15:08:13;14.60;99.90
1594;DHT22;790;47.000;16.084;2023-04-24T15:10:40;14.70;99.90
1594;DHT22;790;47.000;16.084;2023-04-24T15:13:07;14.70;99.90
1594;DHT22;790;47.000;16.084;2023-04-24T15:15:36;14.80;99.90
1594;DHT22;790;47.000;16.084;2023-04-24T15:18:04;14.70;99.90
1594;DHT22;790;47.000;16.084;2023-04-24T15:20:31;14.70;99.90
1594;DHT22;790;47.000;16.084;2023-04-24T15:22:58;14.70;99.90
1594;DHT22;790;47.000;16.084;2023-04-24T15:25:28;14.60;99.90
1594;DHT22;790;47.000;16.084;2023-04-24T15:27:55;14.70;99.90
1594;DHT22;790;47.000;16.084;2023-04-24T15:30:22;14.60;99.90
1594;DHT22;790;47.000;16.084;2023-04-24T15:32:51;14.60;99.90
1594;DHT22;790;47.000;16.084;2023-04-24T15:35:18;14.50;99.90
1594;DHT22;790;47.000;16.084;2023-04-24T15:37:45;14.40;99.90
1594;DHT22;790;47.000;16.084;2023-04-24T15:40:14;14.40;99.90
1594;DHT22;790;47.000;16.084;2023-04-24T15:42:43;14.30;99.90
1594;DHT22;790;47.000;16.084;2023-04-24T15:45:10;14.20;99.90
1594;DHT22;790;47.000;16.084;2023-04-24T15:47:38;14.20;99.90
1594;DHT22;790;47.000;16.084;2023-04-24T15:50:08;14.20;99.90
1594;DHT22;790;47.000;16.084;2023-04-24T15:52:36;14.20;99.90
1594;DHT22;790;47.000;16.084;2023-04-24T15:55:04;14.20;99.90
1594;DHT22;790;47.000;16.084;2023-04-24T15:57:32;14.20;99.90
1594;DHT22;790;47.000;16.084;2023-04-24T15:59:59;14.20;99.90
1594;DHT22;790;47.000;16.084;2023-04-24T16:02:27;14.30;99.90
1594;DHT22;790;47.000;16.084;2023-04-24T16:04:54;14.20;99.90
1594;DHT22;790;47.000;16.084;2023-04-24T16:07:22;14.20;99.90
1594;DHT22;790;47.000;16.084;2023-04-24T16:09:50;14.20;99.90
1594;DHT22;790;47.000;16.084;2023-04-24T16:12:17;14.20;99.90
1594;DHT22;790;47.000;16.084;2023-04-24T16:14:44;14.20;99.90
1594;DHT22;790;47.000;16.084;2023-04-24T16:17:11;14.20;99.90
1594;DHT22;790;47.000;16.084;2023-04-24T16:19:40;14.20;99.90
1594;DHT22;790;47.000;16.084;2023-04-24T16:22:07;14.30;99.90
1594;DHT22;790;47.000;16.084;2023-04-24T16:24:35;14.30;99.90
1594;DHT22;790;47.000;16.084;2023-04-24T16:27:02;14.40;99.90
1594;DHT22;790;47.000;16.084;2023-04-24T16:29:30;14.40;99.90
1594;DHT22;790;47.000;16.084;2023-04-24T16:31:57;14.40;99.90
1594;DHT22;790;47.000;16.084;2023-04-24T16:34:25;14.50;99.90
1594;DHT22;790;47.000;16.084;2023-04-24T16:36:53;14.50;99.90
1594;DHT22;790;47.000;16.084;2023-04-24T16:39:20;14.50;99.90
1594;DHT22;790;47.000;16.084;2023-04-24T16:41:49;14.40;99.90
1594;DHT22;790;47.000;16.084;2023-04-24T16:44:17;14.40;99.90
1594;DHT22;790;47.000;16.084;2023-04-24T16:46:45;14.30;99.90
1594;DHT22;790;47.000;16.084;2023-04-24T16:49:13;14.30;99.90
1594;DHT22;790;47.000;16.084;2023-04-24T16:51:40;14.30;99.90
1594;DHT22;790;47.000;16.084;2023-04-24T16:54:07;14.30;99.90
1594;DHT22;790;47.000;16.084;2023-04-24T16:56:35;14.30;99.90
1594;DHT22;790;47.000;16.084;2023-04-24T16:59:04;14.40;99.90
1594;DHT22;790;47.000;16.084;2023-04-24T17:01:31;14.40;99.90
1594;DHT22;790;47.000;16.084;2023-04-24T17:03:59;14.40;99.90
1594;DHT22;790;47.000;16.084;2023-04-24T17:06:26;14.30;99.90
1594;DHT22;790;47.000;16.084;2023-04-24T17:08:53;14.30;99.90
1594;DHT22;790;47.000;16.084;2023-04-24T17:11:21;14.30;99.90